sensor_id;sensor_type;location;lat;lon;timestamp;P1;durP1;ratioP1;P2;durP2;ratioP2
83485;SDS011;73423;45.118;20.726;2024-02-23T00:04:40;14.38;;;7.93;;
83485;SDS011;73423;45.118;20.726;2024-02-23T00:14:42;12.87;;;7.70;;
83485;SDS011;73423;45.118;20.726;2024-02-23T00:24:43;17.57;;;7.93;;
83485;SDS011;73423;45.118;20.726;2024-02-23T00:34:44;14.48;;;6.80;;
83485;SDS011;73423;45.118;20.726;2024-02-23T00:44:46;13.33;;;7.20;;
83485;SDS011;73423;45.118;20.726;2024-02-23T00:54:47;11.33;;;6.87;;
83485;SDS011;73423;45.118;20.726;2024-02-23T01:04:48;13.15;;;6.90;;
83485;SDS011;73423;45.118;20.726;2024-02-23T01:14:49;11.73;;;6.30;;
83485;SDS011;73423;45.118;20.726;2024-02-23T01:24:50;10.23;;;6.47;;
83485;SDS011;73423;45.118;20.726;2024-02-23T01:34:51;11.63;;;5.97;;
83485;SDS011;73423;45.118;20.726;2024-02-23T01:44:53;12.32;;;6.60;;
83485;SDS011;73423;45.118;20.726;2024-02-23T01:54:56;9.20;;;5.90;;
83485;SDS011;73423;45.118;20.726;2024-02-23T02:04:57;10.53;;;6.00;;
83485;SDS011;73423;45.118;20.726;2024-02-23T02:14:59;12.23;;;6.07;;
83485;SDS011;73423;45.118;20.726;2024-02-23T02:25:02;10.97;;;6.07;;
83485;SDS011;73423;45.118;20.726;2024-02-23T02:35:03;10.13;;;5.47;;
83485;SDS011;73423;45.118;20.726;2024-02-23T02:45:05;8.75;;;5.50;;
83485;SDS011;73423;45.118;20.726;2024-02-23T02:55:07;8.98;;;5.13;;
83485;SDS011;73423;45.118;20.726;2024-02-23T03:05:08;8.20;;;5.40;;
83485;SDS011;73423;45.118;20.726;2024-02-23T03:15:10;8.17;;;4.97;;
83485;SDS011;73423;45.118;20.726;2024-02-23T03:25:11;9.05;;;4.57;;
83485;SDS011;73423;45.118;20.726;2024-02-23T03:35:12;8.07;;;4.77;;
83485;SDS011;73423;45.118;20.726;2024-02-23T03:45:13;7.90;;;4.70;;
83485;SDS011;73423;45.118;20.726;2024-02-23T03:55:14;7.72;;;4.55;;
83485;SDS011;73423;45.118;20.726;2024-02-23T04:05:15;7.97;;;4.20;;
83485;SDS011;73423;45.118;20.726;2024-02-23T04:15:17;7.40;;;4.10;;
83485;SDS011;73423;45.118;20.726;2024-02-23T04:25:18;6.50;;;3.42;;
83485;SDS011;73423;45.118;20.726;2024-02-23T04:35:19;6.15;;;3.58;;
83485;SDS011;73423;45.118;20.726;2024-02-23T04:45:21;5.73;;;3.00;;
83485;SDS011;73423;45.118;20.726;2024-02-23T04:55:22;6.57;;;3.60;;
83485;SDS011;73423;45.118;20.726;2024-02-23T05:05:23;7.03;;;3.92;;
83485;SDS011;73423;45.118;20.726;2024-02-23T05:15:24;7.20;;;3.90;;
83485;SDS011;73423;45.118;20.726;2024-02-23T05:25:25;5.13;;;3.40;;
83485;SDS011;73423;45.118;20.726;2024-02-23T05:35:26;9.10;;;3.65;;
83485;SDS011;73423;45.118;20.726;2024-02-23T05:45:28;7.37;;;4.53;;
83485;SDS011;73423;45.118;20.726;2024-02-23T05:55:29;7.23;;;4.40;;
83485;SDS011;73423;45.118;20.726;2024-02-23T06:05:30;7.88;;;4.30;;
83485;SDS011;73423;45.118;20.726;2024-02-23T06:15:32;7.65;;;4.53;;
83485;SDS011;73423;45.118;20.726;2024-02-23T06:25:33;7.67;;;4.53;;
83485;SDS011;73423;45.118;20.726;2024-02-23T06:35:34;8.30;;;5.33;;
83485;SDS011;73423;45.118;20.726;2024-02-23T06:45:35;14.02;;;5.78;;
83485;SDS011;73423;45.118;20.726;2024-02-23T06:55:37;13.20;;;5.43;;
83485;SDS011;73423;45.118;20.726;2024-02-23T07:05:38;9.63;;;5.63;;
83485;SDS011;73423;45.118;20.726;2024-02-23T07:15:40;13.75;;;6.75;;
83485;SDS011;73423;45.118;20.726;2024-02-23T07:25:41;10.40;;;5.20;;
83485;SDS011;73423;45.118;20.726;2024-02-23T07:35:42;10.93;;;5.30;;
83485;SDS011;73423;45.118;20.726;2024-02-23T07:45:43;13.43;;;7.35;;
83485;SDS011;73423;45.118;20.726;2024-02-23T07:55:45;16.48;;;9.18;;
83485;SDS011;73423;45.118;20.726;2024-02-23T08:05:46;10.47;;;6.70;;
83485;SDS011;73423;45.118;20.726;2024-02-23T08:15:47;13.90;;;7.70;;
83485;SDS011;73423;45.118;20.726;2024-02-23T08:25:49;16.92;;;8.13;;
83485;SDS011;73423;45.118;20.726;2024-02-23T08:35:51;9.93;;;6.50;;
83485;SDS011;73423;45.118;20.726;2024-02-23T08:45:52;16.13;;;7.73;;
83485;SDS011;73423;45.118;20.726;2024-02-23T08:55:54;21.60;;;9.98;;
83485;SDS011;73423;45.118;20.726;2024-02-23T09:05:55;15.63;;;8.10;;
83485;SDS011;73423;45.118;20.726;2024-02-23T09:15:57;16.23;;;7.37;;
83485;SDS011;73423;45.118;20.726;2024-02-23T09:25:58;17.20;;;7.72;;
83485;SDS011;73423;45.118;20.726;2024-02-23T09:36:00;9.83;;;6.07;;
83485;SDS011;73423;45.118;20.726;2024-02-23T09:46:02;15.37;;;6.03;;
83485;SDS011;73423;45.118;20.726;2024-02-23T09:56:04;18.90;;;6.20;;
83485;SDS011;73423;45.118;20.726;2024-02-23T10:06:06;17.67;;;10.40;;
83485;SDS011;73423;45.118;20.726;2024-02-23T10:16:08;25.20;;;9.90;;
83485;SDS011;73423;45.118;20.726;2024-02-23T10:26:09;9.83;;;5.70;;
83485;SDS011;73423;45.118;20.726;2024-02-23T10:36:11;34.92;;;6.43;;
83485;SDS011;73423;45.118;20.726;2024-02-23T10:46:13;11.83;;;6.30;;
83485;SDS011;73423;45.118;20.726;2024-02-23T10:56:15;15.33;;;8.07;;
83485;SDS011;73423;45.118;20.726;2024-02-23T11:06:16;15.20;;;7.97;;
83485;SDS011;73423;45.118;20.726;2024-02-23T11:16:31;12.83;;;6.27;;
83485;SDS011;73423;45.118;20.726;2024-02-23T11:26:33;15.03;;;6.17;;
83485;SDS011;73423;45.118;20.726;2024-02-23T11:36:38;12.45;;;6.97;;
83485;SDS011;73423;45.118;20.726;2024-02-23T11:46:47;12.13;;;6.30;;
83485;SDS011;73423;45.118;20.726;2024-02-23T11:56:48;12.03;;;6.40;;
83485;SDS011;73423;45.118;20.726;2024-02-23T12:06:54;11.80;;;6.25;;
83485;SDS011;73423;45.118;20.726;2024-02-23T12:16:56;8.03;;;4.33;;
83485;SDS011;73423;45.118;20.726;2024-02-23T12:26:58;11.50;;;5.17;;
83485;SDS011;73423;45.118;20.726;2024-02-23T12:37:02;11.30;;;5.90;;
83485;SDS011;73423;45.118;20.726;2024-02-23T12:47:04;9.93;;;5.10;;
83485;SDS011;73423;45.118;20.726;2024-02-23T12:57:05;10.03;;;5.93;;
83485;SDS011;73423;45.118;20.726;2024-02-23T13:07:08;10.97;;;6.40;;
83485;SDS011;73423;45.118;20.726;2024-02-23T13:17:11;12.40;;;7.13;;
83485;SDS011;73423;45.118;20.726;2024-02-23T13:27:12;10.40;;;5.43;;
83485;SDS011;73423;45.118;20.726;2024-02-23T13:37:13;9.17;;;5.23;;
83485;SDS011;73423;45.118;20.726;2024-02-23T13:47:15;17.47;;;10.47;;
83485;SDS011;73423;45.118;20.726;2024-02-23T13:57:16;10.00;;;6.10;;
83485;SDS011;73423;45.118;20.726;2024-02-23T14:07:17;9.60;;;5.97;;
83485;SDS011;73423;45.118;20.726;2024-02-23T14:17:19;12.20;;;6.65;;
83485;SDS011;73423;45.118;20.726;2024-02-23T14:27:22;12.73;;;6.40;;
83485;SDS011;73423;45.118;20.726;2024-02-23T14:37:24;16.13;;;7.80;;
83485;SDS011;73423;45.118;20.726;2024-02-23T14:47:26;20.10;;;10.57;;
83485;SDS011;73423;45.118;20.726;2024-02-23T14:57:27;15.80;;;7.30;;
83485;SDS011;73423;45.118;20.726;2024-02-23T15:07:28;16.42;;;8.38;;
83485;SDS011;73423;45.118;20.726;2024-02-23T15:17:30;28.23;;;14.07;;
83485;SDS011;73423;45.118;20.726;2024-02-23T15:27:31;15.67;;;8.33;;
83485;SDS011;73423;45.118;20.726;2024-02-23T15:37:32;17.07;;;7.77;;
83485;SDS011;73423;45.118;20.726;2024-02-23T15:47:34;16.73;;;8.40;;
83485;SDS011;73423;45.118;20.726;2024-02-23T15:57:35;26.52;;;11.57;;
83485;SDS011;73423;45.118;20.726;2024-02-23T16:07:36;23.33;;;10.70;;
83485;SDS011;73423;45.118;20.726;2024-02-23T16:17:37;25.97;;;14.27;;
83485;SDS011;73423;45.118;20.726;2024-02-23T16:27:42;52.20;;;18.80;;
83485;SDS011;73423;45.118;20.726;2024-02-23T16:37:43;29.97;;;13.67;;
83485;SDS011;73423;45.118;20.726;2024-02-23T16:47:44;35.23;;;17.20;;
83485;SDS011;73423;45.118;20.726;2024-02-23T16:57:45;37.63;;;15.52;;
83485;SDS011;73423;45.118;20.726;2024-02-23T17:07:50;36.73;;;16.53;;
83485;SDS011;73423;45.118;20.726;2024-02-23T17:17:51;18.03;;;9.47;;
83485;SDS011;73423;45.118;20.726;2024-02-23T17:27:53;15.75;;;8.80;;
83485;SDS011;73423;45.118;20.726;2024-02-23T17:37:57;18.60;;;8.87;;
83485;SDS011;73423;45.118;20.726;2024-02-23T17:47:58;19.60;;;9.37;;
83485;SDS011;73423;45.118;20.726;2024-02-23T17:58:00;13.88;;;7.53;;
83485;SDS011;73423;45.118;20.726;2024-02-23T18:08:04;14.90;;;7.90;;
83485;SDS011;73423;45.118;20.726;2024-02-23T18:18:11;19.90;;;11.10;;
83485;SDS011;73423;45.118;20.726;2024-02-23T18:28:12;25.50;;;9.35;;
83485;SDS011;73423;45.118;20.726;2024-02-23T18:38:15;18.13;;;9.07;;
83485;SDS011;73423;45.118;20.726;2024-02-23T18:48:16;30.60;;;12.53;;
83485;SDS011;73423;45.118;20.726;2024-02-23T18:58:23;17.50;;;8.13;;
83485;SDS011;73423;45.118;20.726;2024-02-23T19:08:24;19.63;;;8.52;;
83485;SDS011;73423;45.118;20.726;2024-02-23T19:18:26;14.50;;;6.80;;
83485;SDS011;73423;45.118;20.726;2024-02-23T19:28:27;17.13;;;8.27;;
83485;SDS011;73423;45.118;20.726;2024-02-23T19:38:28;16.95;;;6.65;;
83485;SDS011;73423;45.118;20.726;2024-02-23T19:48:29;12.97;;;6.03;;
83485;SDS011;73423;45.118;20.726;2024-02-23T19:58:31;13.67;;;6.77;;
83485;SDS011;73423;45.118;20.726;2024-02-23T20:08:32;12.65;;;5.93;;
83485;SDS011;73423;45.118;20.726;2024-02-23T20:18:33;9.80;;;5.03;;
83485;SDS011;73423;45.118;20.726;2024-02-23T20:28:36;14.40;;;5.83;;
83485;SDS011;73423;45.118;20.726;2024-02-23T20:38:40;14.63;;;6.40;;
83485;SDS011;73423;45.118;20.726;2024-02-23T20:48:46;11.98;;;4.93;;
83485;SDS011;73423;45.118;20.726;2024-02-23T20:58:47;6.10;;;3.50;;
83485;SDS011;73423;45.118;20.726;2024-02-23T21:08:56;8.30;;;4.03;;
83485;SDS011;73423;45.118;20.726;2024-02-23T21:19:02;10.57;;;4.43;;
83485;SDS011;73423;45.118;20.726;2024-02-23T21:29:05;11.37;;;4.90;;
83485;SDS011;73423;45.118;20.726;2024-02-23T21:39:08;14.50;;;5.57;;
83485;SDS011;73423;45.118;20.726;2024-02-23T21:59:34;11.20;;;4.73;;
83485;SDS011;73423;45.118;20.726;2024-02-23T22:09:35;13.20;;;6.00;;
83485;SDS011;73423;45.118;20.726;2024-02-23T22:19:37;9.83;;;5.10;;
83485;SDS011;73423;45.118;20.726;2024-02-23T22:29:39;8.75;;;4.28;;
83485;SDS011;73423;45.118;20.726;2024-02-23T22:39:41;10.67;;;4.90;;
83485;SDS011;73423;45.118;20.726;2024-02-23T22:49:42;12.70;;;5.63;;
83485;SDS011;73423;45.118;20.726;2024-02-23T22:59:43;7.82;;;3.90;;
83485;SDS011;73423;45.118;20.726;2024-02-23T23:09:44;14.33;;;5.97;;
83485;SDS011;73423;45.118;20.726;2024-02-23T23:19:46;13.47;;;6.20;;
83485;SDS011;73423;45.118;20.726;2024-02-23T23:29:47;7.80;;;3.88;;
83485;SDS011;73423;45.118;20.726;2024-02-23T23:39:48;21.73;;;7.33;;
83485;SDS011;73423;45.118;20.726;2024-02-23T23:49:50;11.60;;;5.00;;
83485;SDS011;73423;45.118;20.726;2024-02-23T23:59:51;8.03;;;3.77;;
